27 de mayo de 2022

Hora Código Tiempo Temp. Visibilidad Cielo nuboso Viento METAR/SPECI
12:00 p. m.
V
66 °F 9 mi 8.600 ft Var Var 8 kt METAR CYBW 271800Z AUTO VRB08KT 9SM BKN086 19/05 A2962 RMK SLP030 DENSITY ALT 5700FT
11:00 a. m.
V
64 °F 9 mi - 130° 130° 3 kt METAR CYBW 271700Z AUTO 13003KT 070V220 9SM FEW066 18/04 A2963 RMK SLP036 DENSITY ALT 5500FT
10:00 a. m.
V
59 °F 9 mi - Var 000° 0 kt METAR CYBW 271600Z AUTO 00000KT 9SM CLR 15/04 A2966 RMK SLP048 DENSITY ALT 5200FT
9:00 a. m.
V
54 °F 9 mi 18.000 ft Var Var 2 kt METAR CYBW 271500Z AUTO VRB02KT 9SM BKN180 OVC200 12/03 A2967 RMK SLP053 DENSITY ALT 4800FT
8:00 a. m.
V
50 °F 9 mi 19.000 ft 300° 300° 6 kt METAR CYBW 271400Z AUTO 30006KT 9SM FEW071 BKN190 10/02 A2969 RMK SLP057 DENSITY ALT 4600FT
7:00 a. m.
V
46 °F 9 mi 18.000 ft Var Var 2 kt METAR CYBW 271300Z AUTO VRB02KT 9SM FEW076 SCT110 BKN180 BKN200 08/03 A2970 RMK SLP061 DENSITY ALT 4300FT
6:00 a. m.
V
45 °F 9 mi 8.100 ft Var 000° 0 kt METAR CYBW 271200Z AUTO 00000KT 9SM OVC081 07/01 A2972 RMK SLP069 DENSITY ALT 4200FT
5:00 a. m.
V
46 °F 9 mi 8.600 ft 310° 310° 6 kt METAR CYBW 271100Z AUTO 31006KT 9SM OVC086 08/M00 A2971 RMK SLP066 DENSITY ALT 4300FT
4:00 a. m.
V
46 °F 9 mi 11.000 ft 350° 350° 4 kt METAR CYBW 271000Z AUTO 35004KT 9SM BKN110 OVC140 08/00 A2973 RMK SLP073 DENSITY ALT 4300FT
3:00 a. m.
V
50 °F 9 mi 10.000 ft 190° 190° 7 kt METAR CYBW 270900Z AUTO 19007KT 180V250 9SM OVC100 10/01 A2976 RMK SLP083 DENSITY ALT 4500FT
2:00 a. m.
V
48 °F 9 mi 11.000 ft 310° 310° 8 kt METAR CYBW 270800Z AUTO 31008KT 9SM BKN110 BKN130 BKN150 09/M00 A2976 RMK SLP084 DENSITY ALT 4400FT
1:00 a. m.
V
45 °F 9 mi 14.000 ft 300° 300° 5 kt METAR CYBW 270700Z AUTO 30005KT 9SM BKN140 OVC170 07/M00 A2977 RMK SLP091 DENSITY ALT 4200FT
12:00 a. m.
V
50 °F 9 mi - 290° 290° 8 kt METAR CYBW 270600Z AUTO 29008KT 9SM CLR 10/M01 A2979 RMK ICE MISG SLP091 DENSITY ALT 4500FT

26 de mayo de 2022

Hora Código Tiempo Temp. Visibilidad Cielo nuboso Viento METAR/SPECI
11:00 p. m.
V
48 °F 9 mi 19.000 ft 260° 260° 4 kt METAR CYBW 270500Z AUTO 26004KT 9SM SCT170 BKN190 BKN210 09/M00 A2979 RMK SLP096 DENSITY ALT 4300FT
10:00 p. m.
V
52 °F 9 mi - 240° 240° 8 kt METAR CYBW 270400Z AUTO 24008KT 9SM FEW180 11/M01 A2980 RMK SLP096 DENSITY ALT 4600FT
9:00 p. m.
V
57 °F 9 mi - 240° 240° 8 kt METAR CYBW 270300Z AUTO 24008KT 9SM CLR 14/M00 A2979 RMK SLP090 DENSITY ALT 4900FT
8:00 p. m.
V
64 °F 9 mi - 250° 250° 9 - 17 kt METAR CYBW 270200Z AUTO 25009G17KT 9SM CLR 18/M02 A2979 RMK SLP088 DENSITY ALT 5400FT
7:00 p. m.
V
66 °F 9 mi - 240° 240° 13 kt METAR CYBW 270100Z AUTO 24013KT 9SM CLR 19/M03 A2979 RMK SLP095 DENSITY ALT 5500FT
6:00 p. m.
V
64 °F 9 mi 10.000 ft 140° 140° 7 - 15 kt METAR CYBW 270000Z AUTO 14007G15KT 090V190 9SM BKN100 18/M01 A2981 RMK SLP108 DENSITY ALT 5400FT
5:00 p. m.
V
64 °F 9 mi 16.000 ft Var Var 2 kt METAR CYBW 262300Z AUTO VRB02KT 9SM BKN160 18/M04 A2982 RMK SLP108 DENSITY ALT 5300FT
4:00 p. m.
V
64 °F 9 mi - Var Var 7 - 15 kt METAR CYBW 262200Z AUTO VRB07G15KT 9SM FEW130 18/M02 A2985 RMK SLP118 DENSITY ALT 5400FT
3:00 p. m.
V
63 °F 9 mi 13.000 ft 260° 260° 4 kt METAR CYBW 262100Z AUTO 26004KT 200V310 9SM BKN130 17/M03 A2987 RMK SLP125 DENSITY ALT 5200FT
2:00 p. m.
V
63 °F 9 mi 15.000 ft 260° 260° 10 - 19 kt METAR CYBW 262000Z AUTO 26010G19KT 220V300 9SM OVC150 17/M03 A2988 RMK SLP126 DENSITY ALT 5200FT
1:00 p. m.
V
63 °F 9 mi - 210° 210° 9 - 16 kt METAR CYBW 261900Z AUTO 21009G16KT 190V270 9SM FEW220 17/M04 A2990 RMK ICE MISG SLP135 DENSITY ALT 5100FT
12:00 p. m.
V
63 °F 9 mi - 270° 270° 11 - 16 kt METAR CYBW 261800Z AUTO 27011G16KT 200V280 9SM CLR 17/M03 A2990 RMK SLP139 DENSITY ALT 5100FT
11:00 a. m.
V
61 °F 9 mi 22.000 ft 240° 240° 11 - 17 kt METAR CYBW 261700Z AUTO 24011G17KT 200V280 9SM BKN220 16/M02 A2991 RMK SLP138 DENSITY ALT 5000FT
10:00 a. m.
V
59 °F 9 mi 21.000 ft 310° 310° 12 kt METAR CYBW 261600Z AUTO 31012KT 9SM OVC210 15/M02 A2991 RMK SLP137 DENSITY ALT 4900FT
9:00 a. m.
V
57 °F 9 mi 22.000 ft 280° 280° 12 kt METAR CYBW 261500Z AUTO 28012KT 9SM BKN220 BKN240 14/M03 A2991 RMK SLP135 DENSITY ALT 4800FT
8:00 a. m.
V
54 °F 9 mi 24.000 ft 350° 350° 4 kt METAR CYBW 261400Z AUTO 35004KT 290V020 9SM BKN240 12/M02 A2991 RMK SLP136 DENSITY ALT 4500FT
7:00 a. m.
V
45 °F 9 mi 24.000 ft 330° 330° 4 kt METAR CYBW 261300Z AUTO 33004KT 9SM BKN240 07/M02 A2991 RMK SLP141
6:00 a. m.
V
36 °F 9 mi - 300° 300° 4 kt METAR CYBW 261200Z AUTO 30004KT 9SM CLR 02/M04 A2990 RMK SLP143
5:00 a. m.
V
39 °F 9 mi - 310° 310° 6 kt METAR CYBW 261100Z AUTO 31006KT 9SM CLR 04/M04 A2989 RMK SLP133
4:00 a. m.
V
41 °F 9 mi - 300° 300° 5 kt METAR CYBW 261000Z AUTO 30005KT 9SM CLR 05/M03 A2987 RMK SLP130
3:00 a. m.
V
43 °F 9 mi - 310° 310° 7 kt METAR CYBW 260900Z AUTO 31007KT 9SM CLR 06/M03 A2986 RMK SLP124
2:00 a. m.
V
46 °F 9 mi - 330° 330° 4 kt METAR CYBW 260800Z AUTO 33004KT 9SM CLR 08/M04 A2985 RMK SLP114 DENSITY ALT 4200FT
1:00 a. m.
V
43 °F 9 mi - 280° 280° 9 - 15 kt METAR CYBW 260700Z AUTO 28009G15KT 9SM CLR 06/M04 A2985 RMK SLP119 DENSITY ALT 4000FT
12:00 a. m.
V
41 °F 9 mi - 260° 260° 10 - 15 kt METAR CYBW 260600Z AUTO 26010G15KT 9SM CLR 05/M03 A2984 RMK SLP119

25 de mayo de 2022

Hora Código Tiempo Temp. Visibilidad Cielo nuboso Viento METAR/SPECI
11:00 p. m.
V
45 °F 9 mi - 280° 280° 10 - 15 kt METAR CYBW 260500Z AUTO 28010G15KT 9SM CLR 07/M03 A2983 RMK SLP113 DENSITY ALT 4100FT
10:00 p. m.
V
50 °F 9 mi - 280° 280° 8 - 16 kt METAR CYBW 260400Z AUTO 28008G16KT 9SM CLR 10/M02 A2982 RMK SLP107 DENSITY ALT 4400FT
9:00 p. m.
V
55 °F 9 mi - 270° 270° 14 - 22 kt METAR CYBW 260300Z AUTO 27014G22KT 9SM CLR 13/M03 A2979 RMK SLP095 DENSITY ALT 4800FT
8:00 p. m.
V
59 °F 9 mi - 270° 270° 23 - 29 kt METAR CYBW 260200Z AUTO 27023G29KT 9SM CLR 15/M03 A2977 RMK SLP089 DENSITY ALT 5100FT
7:00 p. m.
V
61 °F 9 mi - 270° 270° 25 - 32 kt METAR CYBW 260100Z AUTO 27025G32KT 9SM CLR 16/M03 A2977 RMK SLP085 DENSITY ALT 5200FT
6:00 p. m.
V
63 °F 9 mi - 270° 270° 25 - 31 kt METAR CYBW 260000Z AUTO 27025G31KT 9SM CLR 17/M02 A2976 RMK SLP085 DENSITY ALT 5400FT
5:00 p. m.
V
66 °F 9 mi - 300° 300° 16 - 23 kt METAR CYBW 252300Z AUTO 30016G23KT 250V320 9SM CLR 19/M03 A2976 RMK SLP082 DENSITY ALT 5500FT
4:00 p. m.
V
63 °F 9 mi 9.100 ft 240° 240° 7 - 25 kt METAR CYBW 252200Z AUTO 24007G25KT 180V280 9SM BKN091 17/M04 A2976 RMK SLP084 DENSITY ALT 5300FT
3:25 p. m.
V
64 °F 9 mi 9.600 ft 260° 260° 15 - 22 kt METAR CYBW 252125Z AUTO 26015G22KT 230V320 9SM BKN096 18/M03 A2976 RMK SLP070 DENSITY ALT 5400FT
3:00 p. m.
V
61 °F 9 mi 9.100 ft 230° 230° 5 - 19 kt METAR CYBW 252100Z AUTO 23005G19KT 200V290 9SM BKN091 BKN110 16/M03 A2977 RMK SLP089 DENSITY ALT 5200FT
2:00 p. m.
V
64 °F 9 mi 18.000 ft 250° 250° 11 - 21 kt METAR CYBW 252000Z AUTO 25011G21KT 200V300 9SM FEW081 SCT097 BKN180 18/M02 A2977 RMK SLP086 DENSITY ALT 5400FT
1:00 p. m.
V
61 °F 9 mi - 230° 230° 6 - 18 kt METAR CYBW 251900Z AUTO 23006G18KT 220V300 9SM FEW081 SCT240 16/M02 A2978 RMK SLP091 DENSITY ALT 5100FT
12:00 p. m.
V
61 °F 9 mi - 270° 270° 10 - 25 kt METAR CYBW 251800Z AUTO 27010G25KT 220V300 9SM SCT076 SCT230 16/M03 A2978 RMK SLP093 DENSITY ALT 5100FT
11:00 a. m.
V
59 °F 9 mi - 280° 280° 14 - 21 kt METAR CYBW 251700Z AUTO 28014G21KT 9SM FEW240 15/M03 A2979 RMK SLP098 DENSITY ALT 5000FT
10:00 a. m.
V
57 °F 9 mi - 290° 290° 12 - 23 kt METAR CYBW 251600Z AUTO 29012G23KT 9SM SCT240 14/M01 A2980 RMK SLP101 DENSITY ALT 5000FT
9:00 a. m.
V
55 °F 9 mi - 260° 260° 11 - 16 kt METAR CYBW 251500Z AUTO 26011G16KT 9SM FEW220 13/00 A2981 RMK SLP099 DENSITY ALT 4800FT
Datos más antiguos

Descarga nuestra aplicación

Acceso fácil a todo el tiempo de la aviación en tu teléfono móvil y tableta.
Con muchas funciones no disponibles en el sitio web, como la compatibilidad sin conexión y una lista personal de aeropuertos.

Nosotros y terceros seguimos tu comportamiento en Internet en nuestro sitio web con cookies. Si continúas, asumimos que estás de acuerdo con nuestra política de cookies. Más información